sensor_id;sensor_type;location;lat;lon;timestamp;temperature;humidity
70986;DHT22;58645;43.068;25.610;2022-10-18T00:00:58;5.70;99.90
70986;DHT22;58645;43.068;25.610;2022-10-18T00:03:24;5.80;99.90
70986;DHT22;58645;43.068;25.610;2022-10-18T00:05:50;5.80;99.90
70986;DHT22;58645;43.068;25.610;2022-10-18T00:08:17;5.70;99.90
70986;DHT22;58645;43.068;25.610;2022-10-18T00:10:43;5.70;99.90
70986;DHT22;58645;43.068;25.610;2022-10-18T00:13:09;5.70;99.90
70986;DHT22;58645;43.068;25.610;2022-10-18T00:15:35;5.70;99.90
70986;DHT22;58645;43.068;25.610;2022-10-18T00:18:01;5.60;99.90
70986;DHT22;58645;43.068;25.610;2022-10-18T00:20:27;5.60;99.90
70986;DHT22;58645;43.068;25.610;2022-10-18T00:22:53;5.50;99.90
70986;DHT22;58645;43.068;25.610;2022-10-18T00:25:19;5.50;99.90
70986;DHT22;58645;43.068;25.610;2022-10-18T00:27:45;5.40;99.90
70986;DHT22;58645;43.068;25.610;2022-10-18T00:30:11;5.40;99.90
70986;DHT22;58645;43.068;25.610;2022-10-18T00:32:38;5.40;99.90
70986;DHT22;58645;43.068;25.610;2022-10-18T00:35:05;5.40;99.90
70986;DHT22;58645;43.068;25.610;2022-10-18T00:37:32;5.30;99.90
70986;DHT22;58645;43.068;25.610;2022-10-18T00:39:58;5.30;99.90
70986;DHT22;58645;43.068;25.610;2022-10-18T00:42:26;5.20;99.90
70986;DHT22;58645;43.068;25.610;2022-10-18T00:45:20;5.20;99.90
70986;DHT22;58645;43.068;25.610;2022-10-18T00:47:49;5.10;99.90
70986;DHT22;58645;43.068;25.610;2022-10-18T00:50:18;5.10;99.90
70986;DHT22;58645;43.068;25.610;2022-10-18T00:52:53;5.10;99.90
70986;DHT22;58645;43.068;25.610;2022-10-18T00:55:20;5.10;99.90
70986;DHT22;58645;43.068;25.610;2022-10-18T00:57:46;5.00;99.90
70986;DHT22;58645;43.068;25.610;2022-10-18T01:00:13;5.00;99.90
70986;DHT22;58645;43.068;25.610;2022-10-18T01:02:40;4.90;99.90
70986;DHT22;58645;43.068;25.610;2022-10-18T01:05:07;4.80;99.90
70986;DHT22;58645;43.068;25.610;2022-10-18T01:18:46;4.70;99.90
70986;DHT22;58645;43.068;25.610;2022-10-18T01:21:28;4.80;99.90
70986;DHT22;58645;43.068;25.610;2022-10-18T01:26:33;4.70;99.90
70986;DHT22;58645;43.068;25.610;2022-10-18T01:31:48;4.80;99.90
70986;DHT22;58645;43.068;25.610;2022-10-18T01:34:17;4.70;99.90
70986;DHT22;58645;43.068;25.610;2022-10-18T01:36:47;4.70;99.90
70986;DHT22;58645;43.068;25.610;2022-10-18T01:39:19;4.60;99.90
70986;DHT22;58645;43.068;25.610;2022-10-18T01:41:48;4.60;99.90
70986;DHT22;58645;43.068;25.610;2022-10-18T01:44:20;4.50;99.90
70986;DHT22;58645;43.068;25.610;2022-10-18T01:46:46;4.40;99.90
70986;DHT22;58645;43.068;25.610;2022-10-18T01:49:12;4.40;99.90
70986;DHT22;58645;43.068;25.610;2022-10-18T01:51:38;4.30;99.90
70986;DHT22;58645;43.068;25.610;2022-10-18T01:54:04;4.20;99.90
70986;DHT22;58645;43.068;25.610;2022-10-18T02:02:25;4.00;99.90
70986;DHT22;58645;43.068;25.610;2022-10-18T02:05:25;3.80;99.90
70986;DHT22;58645;43.068;25.610;2022-10-18T02:13:00;4.20;99.90
70986;DHT22;58645;43.068;25.610;2022-10-18T02:15:31;4.20;99.90
70986;DHT22;58645;43.068;25.610;2022-10-18T02:17:58;4.10;99.90
70986;DHT22;58645;43.068;25.610;2022-10-18T02:20:26;4.10;99.90
70986;DHT22;58645;43.068;25.610;2022-10-18T02:22:54;4.10;99.90
70986;DHT22;58645;43.068;25.610;2022-10-18T02:25:24;4.20;99.90
70986;DHT22;58645;43.068;25.610;2022-10-18T02:27:52;4.20;99.90
70986;DHT22;58645;43.068;25.610;2022-10-18T02:30:20;4.30;99.90
70986;DHT22;58645;43.068;25.610;2022-10-18T02:33:00;4.40;99.90
70986;DHT22;58645;43.068;25.610;2022-10-18T02:35:31;4.40;99.90
70986;DHT22;58645;43.068;25.610;2022-10-18T02:38:00;4.40;99.90
70986;DHT22;58645;43.068;25.610;2022-10-18T02:40:27;4.30;99.90
70986;DHT22;58645;43.068;25.610;2022-10-18T02:42:55;4.30;99.90
70986;DHT22;58645;43.068;25.610;2022-10-18T02:45:21;4.30;99.90
70986;DHT22;58645;43.068;25.610;2022-10-18T02:47:47;4.20;99.90
70986;DHT22;58645;43.068;25.610;2022-10-18T02:50:13;4.20;99.90
70986;DHT22;58645;43.068;25.610;2022-10-18T02:52:39;4.20;99.90
70986;DHT22;58645;43.068;25.610;2022-10-18T02:55:06;4.30;99.90
70986;DHT22;58645;43.068;25.610;2022-10-18T02:57:32;4.30;99.90
70986;DHT22;58645;43.068;25.610;2022-10-18T02:59:58;4.20;99.90
70986;DHT22;58645;43.068;25.610;2022-10-18T03:02:24;4.10;99.90
70986;DHT22;58645;43.068;25.610;2022-10-18T03:04:50;4.00;99.90
70986;DHT22;58645;43.068;25.610;2022-10-18T03:07:16;4.00;99.90
70986;DHT22;58645;43.068;25.610;2022-10-18T03:09:41;4.00;99.90
70986;DHT22;58645;43.068;25.610;2022-10-18T03:12:07;4.10;99.90
70986;DHT22;58645;43.068;25.610;2022-10-18T03:14:33;4.10;99.90
70986;DHT22;58645;43.068;25.610;2022-10-18T03:16:59;4.10;99.90
70986;DHT22;58645;43.068;25.610;2022-10-18T03:19:25;4.10;99.90
70986;DHT22;58645;43.068;25.610;2022-10-18T03:21:50;4.10;99.90
70986;DHT22;58645;43.068;25.610;2022-10-18T03:24:16;4.10;99.90
70986;DHT22;58645;43.068;25.610;2022-10-18T03:26:42;4.00;99.90
70986;DHT22;58645;43.068;25.610;2022-10-18T03:29:09;4.00;99.90
70986;DHT22;58645;43.068;25.610;2022-10-18T03:31:34;3.90;99.90
70986;DHT22;58645;43.068;25.610;2022-10-18T03:34:00;3.80;99.90
70986;DHT22;58645;43.068;25.610;2022-10-18T03:36:26;3.70;99.90
70986;DHT22;58645;43.068;25.610;2022-10-18T03:38:52;3.70;99.90
70986;DHT22;58645;43.068;25.610;2022-10-18T03:41:18;3.60;99.90
70986;DHT22;58645;43.068;25.610;2022-10-18T03:43:45;3.60;99.90
70986;DHT22;58645;43.068;25.610;2022-10-18T03:46:11;3.60;99.90
70986;DHT22;58645;43.068;25.610;2022-10-18T03:48:37;3.60;99.90
70986;DHT22;58645;43.068;25.610;2022-10-18T03:51:03;3.60;99.90
70986;DHT22;58645;43.068;25.610;2022-10-18T03:53:29;3.50;99.90
70986;DHT22;58645;43.068;25.610;2022-10-18T03:55:55;3.50;99.90
70986;DHT22;58645;43.068;25.610;2022-10-18T03:58:22;3.40;99.90
70986;DHT22;58645;43.068;25.610;2022-10-18T04:00:51;3.40;99.90
70986;DHT22;58645;43.068;25.610;2022-10-18T04:03:19;3.40;99.90
70986;DHT22;58645;43.068;25.610;2022-10-18T04:05:46;3.40;99.90
70986;DHT22;58645;43.068;25.610;2022-10-18T04:08:12;3.40;99.90
70986;DHT22;58645;43.068;25.610;2022-10-18T04:10:38;3.40;99.90
70986;DHT22;58645;43.068;25.610;2022-10-18T04:13:05;3.50;99.90
70986;DHT22;58645;43.068;25.610;2022-10-18T04:15:32;3.50;99.90
70986;DHT22;58645;43.068;25.610;2022-10-18T04:17:58;3.40;99.90
70986;DHT22;58645;43.068;25.610;2022-10-18T04:20:28;3.40;99.90
70986;DHT22;58645;43.068;25.610;2022-10-18T04:22:53;3.40;99.90
70986;DHT22;58645;43.068;25.610;2022-10-18T04:25:21;3.40;99.90
70986;DHT22;58645;43.068;25.610;2022-10-18T04:27:47;3.30;99.90
70986;DHT22;58645;43.068;25.610;2022-10-18T04:30:13;3.40;99.90
70986;DHT22;58645;43.068;25.610;2022-10-18T04:32:39;3.30;99.90
70986;DHT22;58645;43.068;25.610;2022-10-18T04:35:05;3.40;99.90
70986;DHT22;58645;43.068;25.610;2022-10-18T04:37:32;3.30;99.90
70986;DHT22;58645;43.068;25.610;2022-10-18T04:39:58;3.40;99.90
70986;DHT22;58645;43.068;25.610;2022-10-18T04:42:24;3.50;99.90
70986;DHT22;58645;43.068;25.610;2022-10-18T04:44:50;3.60;99.90
70986;DHT22;58645;43.068;25.610;2022-10-18T04:47:16;3.60;99.90
70986;DHT22;58645;43.068;25.610;2022-10-18T04:49:46;3.60;99.90
70986;DHT22;58645;43.068;25.610;2022-10-18T04:57:23;3.50;99.90
70986;DHT22;58645;43.068;25.610;2022-10-18T04:59:51;3.60;99.90
70986;DHT22;58645;43.068;25.610;2022-10-18T05:02:19;3.70;99.90
70986;DHT22;58645;43.068;25.610;2022-10-18T05:04:53;3.60;99.90
70986;DHT22;58645;43.068;25.610;2022-10-18T05:07:20;3.60;99.90
70986;DHT22;58645;43.068;25.610;2022-10-18T05:09:47;3.70;99.90
70986;DHT22;58645;43.068;25.610;2022-10-18T05:12:13;3.80;99.90
70986;DHT22;58645;43.068;25.610;2022-10-18T05:14:38;3.80;99.90
70986;DHT22;58645;43.068;25.610;2022-10-18T05:17:07;4.00;99.90
70986;DHT22;58645;43.068;25.610;2022-10-18T05:19:33;4.10;99.90
70986;DHT22;58645;43.068;25.610;2022-10-18T05:21:59;4.20;99.90
70986;DHT22;58645;43.068;25.610;2022-10-18T05:24:25;4.40;99.90
70986;DHT22;58645;43.068;25.610;2022-10-18T05:26:51;4.90;99.90
70986;DHT22;58645;43.068;25.610;2022-10-18T05:29:18;6.50;99.90
70986;DHT22;58645;43.068;25.610;2022-10-18T05:31:44;7.90;99.90
70986;DHT22;58645;43.068;25.610;2022-10-18T05:34:10;9.00;99.90
70986;DHT22;58645;43.068;25.610;2022-10-18T05:36:36;10.00;97.20
70986;DHT22;58645;43.068;25.610;2022-10-18T05:39:03;10.80;88.10
70986;DHT22;58645;43.068;25.610;2022-10-18T05:41:40;11.50;81.00
70986;DHT22;58645;43.068;25.610;2022-10-18T05:50:27;12.50;70.40
70986;DHT22;58645;43.068;25.610;2022-10-18T05:52:59;13.30;68.90
70986;DHT22;58645;43.068;25.610;2022-10-18T05:55:37;14.10;66.60
70986;DHT22;58645;43.068;25.610;2022-10-18T05:58:03;14.60;65.30
70986;DHT22;58645;43.068;25.610;2022-10-18T06:00:29;14.90;61.80
70986;DHT22;58645;43.068;25.610;2022-10-18T06:02:58;14.30;61.40
70986;DHT22;58645;43.068;25.610;2022-10-18T06:05:24;15.20;61.30
70986;DHT22;58645;43.068;25.610;2022-10-18T06:07:57;15.90;59.50
70986;DHT22;58645;43.068;25.610;2022-10-18T06:10:23;16.60;57.70
70986;DHT22;58645;43.068;25.610;2022-10-18T06:12:49;17.30;56.40
70986;DHT22;58645;43.068;25.610;2022-10-18T06:15:18;17.50;53.80
70986;DHT22;58645;43.068;25.610;2022-10-18T06:17:56;17.40;54.00
70986;DHT22;58645;43.068;25.610;2022-10-18T06:20:23;17.50;53.60
70986;DHT22;58645;43.068;25.610;2022-10-18T06:22:52;18.10;52.80
70986;DHT22;58645;43.068;25.610;2022-10-18T06:25:18;18.50;52.10
70986;DHT22;58645;43.068;25.610;2022-10-18T06:27:43;18.50;51.80
70986;DHT22;58645;43.068;25.610;2022-10-18T06:30:10;18.90;50.90
70986;DHT22;58645;43.068;25.610;2022-10-18T06:33:05;19.30;50.10
70986;DHT22;58645;43.068;25.610;2022-10-18T06:35:31;19.70;49.10
70986;DHT22;58645;43.068;25.610;2022-10-18T06:38:16;20.00;48.40
70986;DHT22;58645;43.068;25.610;2022-10-18T06:40:42;20.50;47.30
70986;DHT22;58645;43.068;25.610;2022-10-18T06:43:20;20.30;46.80
70986;DHT22;58645;43.068;25.610;2022-10-18T06:45:46;20.00;46.90
70986;DHT22;58645;43.068;25.610;2022-10-18T06:48:17;20.20;46.60
70986;DHT22;58645;43.068;25.610;2022-10-18T06:51:29;20.50;46.10
70986;DHT22;58645;43.068;25.610;2022-10-18T06:54:58;20.80;45.20
70986;DHT22;58645;43.068;25.610;2022-10-18T06:58:05;21.40;44.50
70986;DHT22;58645;43.068;25.610;2022-10-18T07:02:01;21.70;43.40
70986;DHT22;58645;43.068;25.610;2022-10-18T07:05:47;22.50;42.00
70986;DHT22;58645;43.068;25.610;2022-10-18T07:13:21;23.80;40.00
70986;DHT22;58645;43.068;25.610;2022-10-18T07:15:47;23.60;39.60
70986;DHT22;58645;43.068;25.610;2022-10-18T07:18:13;24.50;38.80
70986;DHT22;58645;43.068;25.610;2022-10-18T07:20:39;25.10;37.30
70986;DHT22;58645;43.068;25.610;2022-10-18T07:23:08;24.90;37.30
70986;DHT22;58645;43.068;25.610;2022-10-18T07:25:39;24.90;37.50
70986;DHT22;58645;43.068;25.610;2022-10-18T07:28:19;24.70;37.70
70986;DHT22;58645;43.068;25.610;2022-10-18T07:30:45;24.80;37.00
70986;DHT22;58645;43.068;25.610;2022-10-18T07:33:19;24.50;37.40
70986;DHT22;58645;43.068;25.610;2022-10-18T07:36:11;24.20;38.10
70986;DHT22;58645;43.068;25.610;2022-10-18T07:39:20;24.50;37.80
70986;DHT22;58645;43.068;25.610;2022-10-18T07:42:00;24.40;37.40
70986;DHT22;58645;43.068;25.610;2022-10-18T07:44:26;24.70;37.10
70986;DHT22;58645;43.068;25.610;2022-10-18T07:46:52;25.00;36.50
70986;DHT22;58645;43.068;25.610;2022-10-18T07:49:18;25.70;35.30
70986;DHT22;58645;43.068;25.610;2022-10-18T07:51:44;25.80;35.30
70986;DHT22;58645;43.068;25.610;2022-10-18T07:54:10;25.80;34.70
70986;DHT22;58645;43.068;25.610;2022-10-18T07:56:36;26.40;34.40
70986;DHT22;58645;43.068;25.610;2022-10-18T07:59:05;26.50;34.30
70986;DHT22;58645;43.068;25.610;2022-10-18T08:01:30;26.70;33.90
70986;DHT22;58645;43.068;25.610;2022-10-18T08:03:57;26.90;33.40
70986;DHT22;58645;43.068;25.610;2022-10-18T08:06:25;27.20;33.10
70986;DHT22;58645;43.068;25.610;2022-10-18T08:08:51;27.50;32.70
70986;DHT22;58645;43.068;25.610;2022-10-18T08:11:19;27.80;32.50
70986;DHT22;58645;43.068;25.610;2022-10-18T08:13:54;28.00;32.40
70986;DHT22;58645;43.068;25.610;2022-10-18T08:16:40;28.20;31.70
70986;DHT22;58645;43.068;25.610;2022-10-18T08:19:10;28.40;32.00
70986;DHT22;58645;43.068;25.610;2022-10-18T08:21:35;28.60;30.70
70986;DHT22;58645;43.068;25.610;2022-10-18T08:24:11;28.70;30.20
70986;DHT22;58645;43.068;25.610;2022-10-18T08:30:33;29.00;30.50
70986;DHT22;58645;43.068;25.610;2022-10-18T08:33:03;29.90;29.20
70986;DHT22;58645;43.068;25.610;2022-10-18T08:35:30;29.80;29.20
70986;DHT22;58645;43.068;25.610;2022-10-18T08:38:00;29.80;29.10
70986;DHT22;58645;43.068;25.610;2022-10-18T08:40:43;29.30;30.00
70986;DHT22;58645;43.068;25.610;2022-10-18T08:43:28;29.40;30.00
70986;DHT22;58645;43.068;25.610;2022-10-18T08:45:57;29.50;30.00
70986;DHT22;58645;43.068;25.610;2022-10-18T08:48:36;29.40;29.20
70986;DHT22;58645;43.068;25.610;2022-10-18T08:51:07;28.90;29.10
70986;DHT22;58645;43.068;25.610;2022-10-18T08:53:58;28.90;29.90
70986;DHT22;58645;43.068;25.610;2022-10-18T08:57:00;29.20;29.50
70986;DHT22;58645;43.068;25.610;2022-10-18T08:59:41;29.30;30.20
70986;DHT22;58645;43.068;25.610;2022-10-18T09:10:19;30.30;28.80
70986;DHT22;58645;43.068;25.610;2022-10-18T09:16:09;30.00;29.00
70986;DHT22;58645;43.068;25.610;2022-10-18T09:22:12;29.30;28.60
70986;DHT22;58645;43.068;25.610;2022-10-18T09:28:15;28.30;29.20
70986;DHT22;58645;43.068;25.610;2022-10-18T09:36:21;29.40;25.90
70986;DHT22;58645;43.068;25.610;2022-10-18T09:39:17;29.00;25.90
70986;DHT22;58645;43.068;25.610;2022-10-18T09:41:56;29.30;26.10
70986;DHT22;58645;43.068;25.610;2022-10-18T09:44:32;29.20;26.10
70986;DHT22;58645;43.068;25.610;2022-10-18T09:47:09;28.80;27.00
70986;DHT22;58645;43.068;25.610;2022-10-18T09:49:46;29.30;27.00
70986;DHT22;58645;43.068;25.610;2022-10-18T09:52:20;29.50;26.60
70986;DHT22;58645;43.068;25.610;2022-10-18T09:55:08;28.70;26.10
70986;DHT22;58645;43.068;25.610;2022-10-18T09:57:54;29.30;26.60
70986;DHT22;58645;43.068;25.610;2022-10-18T10:00:50;29.70;24.80
70986;DHT22;58645;43.068;25.610;2022-10-18T10:07:20;29.70;25.80
70986;DHT22;58645;43.068;25.610;2022-10-18T10:10:22;29.90;24.80
70986;DHT22;58645;43.068;25.610;2022-10-18T10:13:14;29.40;23.00
70986;DHT22;58645;43.068;25.610;2022-10-18T10:16:01;29.30;22.40
70986;DHT22;58645;43.068;25.610;2022-10-18T10:18:40;29.80;21.20
70986;DHT22;58645;43.068;25.610;2022-10-18T10:21:38;29.50;19.30
70986;DHT22;58645;43.068;25.610;2022-10-18T10:24:33;29.70;17.60
70986;DHT22;58645;43.068;25.610;2022-10-18T10:30:33;29.40;17.60
70986;DHT22;58645;43.068;25.610;2022-10-18T10:32:59;29.40;18.60
70986;DHT22;58645;43.068;25.610;2022-10-18T10:35:39;29.20;17.30
70986;DHT22;58645;43.068;25.610;2022-10-18T10:38:06;29.20;17.80
70986;DHT22;58645;43.068;25.610;2022-10-18T10:40:34;30.00;18.40
70986;DHT22;58645;43.068;25.610;2022-10-18T10:46:23;30.80;17.40
70986;DHT22;58645;43.068;25.610;2022-10-18T10:48:58;30.70;18.70
70986;DHT22;58645;43.068;25.610;2022-10-18T10:51:37;31.00;20.00
70986;DHT22;58645;43.068;25.610;2022-10-18T10:54:16;31.00;19.40
70986;DHT22;58645;43.068;25.610;2022-10-18T10:56:55;31.10;18.40
70986;DHT22;58645;43.068;25.610;2022-10-18T10:59:37;31.30;18.20
70986;DHT22;58645;43.068;25.610;2022-10-18T11:04:43;30.60;18.40
70986;DHT22;58645;43.068;25.610;2022-10-18T11:20:09;31.00;17.60
70986;DHT22;58645;43.068;25.610;2022-10-18T11:33:47;31.50;18.70
70986;DHT22;58645;43.068;25.610;2022-10-18T11:36:48;31.70;18.90
70986;DHT22;58645;43.068;25.610;2022-10-18T11:47:49;31.40;19.00
70986;DHT22;58645;43.068;25.610;2022-10-18T11:53:31;31.90;18.30
70986;DHT22;58645;43.068;25.610;2022-10-18T11:56:26;31.70;18.60
70986;DHT22;58645;43.068;25.610;2022-10-18T11:59:05;31.40;18.80
70986;DHT22;58645;43.068;25.610;2022-10-18T12:04:30;31.00;20.30
70986;DHT22;58645;43.068;25.610;2022-10-18T12:06:58;29.60;20.30
70986;DHT22;58645;43.068;25.610;2022-10-18T12:09:31;29.30;21.90
70986;DHT22;58645;43.068;25.610;2022-10-18T12:12:14;28.20;23.00
70986;DHT22;58645;43.068;25.610;2022-10-18T12:19:58;25.40;27.40
70986;DHT22;58645;43.068;25.610;2022-10-18T12:22:35;24.70;28.90
70986;DHT22;58645;43.068;25.610;2022-10-18T12:25:03;23.80;30.00
70986;DHT22;58645;43.068;25.610;2022-10-18T12:27:43;23.30;31.30
70986;DHT22;58645;43.068;25.610;2022-10-18T12:33:07;22.70;33.00
70986;DHT22;58645;43.068;25.610;2022-10-18T12:38:34;22.10;33.60
70986;DHT22;58645;43.068;25.610;2022-10-18T12:41:02;21.90;34.20
70986;DHT22;58645;43.068;25.610;2022-10-18T12:43:31;21.70;35.10
70986;DHT22;58645;43.068;25.610;2022-10-18T12:46:06;21.60;35.40
70986;DHT22;58645;43.068;25.610;2022-10-18T12:48:40;21.50;36.00
70986;DHT22;58645;43.068;25.610;2022-10-18T12:51:17;21.30;35.90
70986;DHT22;58645;43.068;25.610;2022-10-18T13:09:38;20.50;35.20
70986;DHT22;58645;43.068;25.610;2022-10-18T13:17:58;20.40;35.70
70986;DHT22;58645;43.068;25.610;2022-10-18T13:25:59;20.30;35.50
70986;DHT22;58645;43.068;25.610;2022-10-18T13:33:53;20.00;35.20
70986;DHT22;58645;43.068;25.610;2022-10-18T13:36:43;20.00;35.90
70986;DHT22;58645;43.068;25.610;2022-10-18T13:39:19;20.00;35.30
70986;DHT22;58645;43.068;25.610;2022-10-18T13:49:32;19.90;35.50
70986;DHT22;58645;43.068;25.610;2022-10-18T13:52:28;19.90;35.70
70986;DHT22;58645;43.068;25.610;2022-10-18T14:00:50;19.80;35.90
70986;DHT22;58645;43.068;25.610;2022-10-18T14:03:34;19.70;36.00
70986;DHT22;58645;43.068;25.610;2022-10-18T14:06:14;19.60;35.60
70986;DHT22;58645;43.068;25.610;2022-10-18T14:08:53;19.60;35.40
70986;DHT22;58645;43.068;25.610;2022-10-18T14:11:36;19.60;35.40
70986;DHT22;58645;43.068;25.610;2022-10-18T14:24:50;19.40;35.90
70986;DHT22;58645;43.068;25.610;2022-10-18T14:27:38;19.40;35.90
70986;DHT22;58645;43.068;25.610;2022-10-18T14:30:06;19.30;36.10
70986;DHT22;58645;43.068;25.610;2022-10-18T14:32:33;19.30;36.30
70986;DHT22;58645;43.068;25.610;2022-10-18T14:35:02;19.20;35.80
70986;DHT22;58645;43.068;25.610;2022-10-18T14:37:35;19.20;35.70
70986;DHT22;58645;43.068;25.610;2022-10-18T14:43:17;19.10;36.60
70986;DHT22;58645;43.068;25.610;2022-10-18T14:45:44;19.00;36.90
70986;DHT22;58645;43.068;25.610;2022-10-18T14:48:23;19.00;37.30
70986;DHT22;58645;43.068;25.610;2022-10-18T14:51:09;18.90;37.70
70986;DHT22;58645;43.068;25.610;2022-10-18T14:53:53;18.90;38.00
70986;DHT22;58645;43.068;25.610;2022-10-18T14:56:28;18.80;38.40
70986;DHT22;58645;43.068;25.610;2022-10-18T14:59:01;18.70;38.70
70986;DHT22;58645;43.068;25.610;2022-10-18T15:01:33;18.60;38.70
70986;DHT22;58645;43.068;25.610;2022-10-18T15:04:10;18.60;38.90
70986;DHT22;58645;43.068;25.610;2022-10-18T15:06:42;18.60;39.80
70986;DHT22;58645;43.068;25.610;2022-10-18T15:09:10;18.50;40.10
70986;DHT22;58645;43.068;25.610;2022-10-18T15:11:40;18.40;40.70
70986;DHT22;58645;43.068;25.610;2022-10-18T15:14:13;18.20;41.50
70986;DHT22;58645;43.068;25.610;2022-10-18T15:16:40;18.00;41.90
70986;DHT22;58645;43.068;25.610;2022-10-18T15:24:37;17.60;43.30
70986;DHT22;58645;43.068;25.610;2022-10-18T15:27:30;17.40;43.30
70986;DHT22;58645;43.068;25.610;2022-10-18T15:29:57;17.30;44.10
70986;DHT22;58645;43.068;25.610;2022-10-18T15:32:29;17.10;44.10
70986;DHT22;58645;43.068;25.610;2022-10-18T15:35:08;17.00;44.50
70986;DHT22;58645;43.068;25.610;2022-10-18T15:37:46;16.80;44.60
70986;DHT22;58645;43.068;25.610;2022-10-18T15:40:38;16.70;44.30
70986;DHT22;58645;43.068;25.610;2022-10-18T15:48:22;16.30;46.00
70986;DHT22;58645;43.068;25.610;2022-10-18T15:50:58;16.10;46.00
70986;DHT22;58645;43.068;25.610;2022-10-18T15:54:00;16.00;47.80
70986;DHT22;58645;43.068;25.610;2022-10-18T15:56:31;15.90;47.90
70986;DHT22;58645;43.068;25.610;2022-10-18T15:59:04;15.80;48.30
70986;DHT22;58645;43.068;25.610;2022-10-18T16:01:43;15.60;48.80
70986;DHT22;58645;43.068;25.610;2022-10-18T16:04:26;15.50;49.20
70986;DHT22;58645;43.068;25.610;2022-10-18T16:06:53;15.40;50.50
70986;DHT22;58645;43.068;25.610;2022-10-18T16:09:22;15.30;51.10
70986;DHT22;58645;43.068;25.610;2022-10-18T16:11:49;15.10;50.90
70986;DHT22;58645;43.068;25.610;2022-10-18T16:14:20;15.00;51.60
70986;DHT22;58645;43.068;25.610;2022-10-18T16:16:54;14.90;52.30
70986;DHT22;58645;43.068;25.610;2022-10-18T16:19:20;14.80;52.80
70986;DHT22;58645;43.068;25.610;2022-10-18T16:21:47;14.70;53.20
70986;DHT22;58645;43.068;25.610;2022-10-18T16:24:14;14.60;53.90
70986;DHT22;58645;43.068;25.610;2022-10-18T16:26:59;14.50;52.90
70986;DHT22;58645;43.068;25.610;2022-10-18T16:29:25;14.40;54.20
70986;DHT22;58645;43.068;25.610;2022-10-18T16:31:53;14.40;54.60
70986;DHT22;58645;43.068;25.610;2022-10-18T16:34:22;14.30;55.00
70986;DHT22;58645;43.068;25.610;2022-10-18T16:36:51;14.20;54.70
70986;DHT22;58645;43.068;25.610;2022-10-18T16:39:18;14.10;55.20
70986;DHT22;58645;43.068;25.610;2022-10-18T16:41:45;14.00;56.00
70986;DHT22;58645;43.068;25.610;2022-10-18T16:44:12;13.90;56.40
70986;DHT22;58645;43.068;25.610;2022-10-18T16:46:39;13.80;54.10
70986;DHT22;58645;43.068;25.610;2022-10-18T16:49:06;13.70;54.30
70986;DHT22;58645;43.068;25.610;2022-10-18T16:51:42;13.70;55.90
70986;DHT22;58645;43.068;25.610;2022-10-18T16:54:08;13.60;56.80
70986;DHT22;58645;43.068;25.610;2022-10-18T16:56:34;13.60;56.20
70986;DHT22;58645;43.068;25.610;2022-10-18T16:59:00;13.50;56.20
70986;DHT22;58645;43.068;25.610;2022-10-18T17:01:26;13.40;57.40
70986;DHT22;58645;43.068;25.610;2022-10-18T17:03:52;13.30;56.90
70986;DHT22;58645;43.068;25.610;2022-10-18T17:06:24;13.30;57.20
70986;DHT22;58645;43.068;25.610;2022-10-18T17:08:50;13.20;57.60
70986;DHT22;58645;43.068;25.610;2022-10-18T17:11:18;13.20;57.50
70986;DHT22;58645;43.068;25.610;2022-10-18T17:13:45;13.10;58.10
70986;DHT22;58645;43.068;25.610;2022-10-18T17:16:30;13.00;58.50
70986;DHT22;58645;43.068;25.610;2022-10-18T17:18:59;12.90;59.80
70986;DHT22;58645;43.068;25.610;2022-10-18T17:21:36;13.00;59.90
70986;DHT22;58645;43.068;25.610;2022-10-18T17:24:02;12.70;59.60
70986;DHT22;58645;43.068;25.610;2022-10-18T17:26:40;12.70;59.30
70986;DHT22;58645;43.068;25.610;2022-10-18T17:29:06;12.50;59.80
70986;DHT22;58645;43.068;25.610;2022-10-18T17:31:32;12.40;59.70
70986;DHT22;58645;43.068;25.610;2022-10-18T17:34:00;12.30;60.10
70986;DHT22;58645;43.068;25.610;2022-10-18T17:36:26;12.20;60.30
70986;DHT22;58645;43.068;25.610;2022-10-18T17:38:53;12.20;60.60
70986;DHT22;58645;43.068;25.610;2022-10-18T17:41:20;12.10;61.00
70986;DHT22;58645;43.068;25.610;2022-10-18T17:43:48;12.00;61.10
70986;DHT22;58645;43.068;25.610;2022-10-18T17:46:15;11.80;61.30
70986;DHT22;58645;43.068;25.610;2022-10-18T17:48:45;11.70;61.60
70986;DHT22;58645;43.068;25.610;2022-10-18T17:51:13;11.60;61.80
70986;DHT22;58645;43.068;25.610;2022-10-18T17:53:40;11.50;62.30
70986;DHT22;58645;43.068;25.610;2022-10-18T17:56:06;11.40;62.60
70986;DHT22;58645;43.068;25.610;2022-10-18T17:58:34;11.30;62.90
70986;DHT22;58645;43.068;25.610;2022-10-18T18:01:14;11.30;63.30
70986;DHT22;58645;43.068;25.610;2022-10-18T18:03:56;11.30;63.50
70986;DHT22;58645;43.068;25.610;2022-10-18T18:06:25;11.30;63.40
70986;DHT22;58645;43.068;25.610;2022-10-18T18:09:00;11.20;63.60
70986;DHT22;58645;43.068;25.610;2022-10-18T18:11:26;11.20;64.20
70986;DHT22;58645;43.068;25.610;2022-10-18T18:13:56;11.20;63.90
70986;DHT22;58645;43.068;25.610;2022-10-18T18:16:24;11.10;63.80
70986;DHT22;58645;43.068;25.610;2022-10-18T18:18:53;11.10;63.90
70986;DHT22;58645;43.068;25.610;2022-10-18T18:21:20;11.00;63.80
70986;DHT22;58645;43.068;25.610;2022-10-18T18:23:47;11.00;65.60
70986;DHT22;58645;43.068;25.610;2022-10-18T18:26:14;11.00;65.40
70986;DHT22;58645;43.068;25.610;2022-10-18T18:28:40;10.90;65.60
70986;DHT22;58645;43.068;25.610;2022-10-18T18:31:08;10.90;65.20
70986;DHT22;58645;43.068;25.610;2022-10-18T18:33:45;10.80;65.90
70986;DHT22;58645;43.068;25.610;2022-10-18T18:36:11;10.80;65.80
70986;DHT22;58645;43.068;25.610;2022-10-18T18:38:38;10.80;66.50
70986;DHT22;58645;43.068;25.610;2022-10-18T18:41:20;10.70;67.10
70986;DHT22;58645;43.068;25.610;2022-10-18T18:44:02;10.60;67.30
70986;DHT22;58645;43.068;25.610;2022-10-18T18:46:31;10.50;68.20
70986;DHT22;58645;43.068;25.610;2022-10-18T18:49:13;10.50;69.00
70986;DHT22;58645;43.068;25.610;2022-10-18T18:51:40;10.40;69.10
70986;DHT22;58645;43.068;25.610;2022-10-18T18:54:07;10.40;69.30
70986;DHT22;58645;43.068;25.610;2022-10-18T18:56:34;10.30;69.30
70986;DHT22;58645;43.068;25.610;2022-10-18T18:59:01;10.20;68.90
70986;DHT22;58645;43.068;25.610;2022-10-18T19:01:30;10.20;68.90
70986;DHT22;58645;43.068;25.610;2022-10-18T19:03:56;10.10;69.30
70986;DHT22;58645;43.068;25.610;2022-10-18T19:06:26;10.10;69.50
70986;DHT22;58645;43.068;25.610;2022-10-18T19:08:53;10.10;69.60
70986;DHT22;58645;43.068;25.610;2022-10-18T19:11:26;10.00;69.60
70986;DHT22;58645;43.068;25.610;2022-10-18T19:14:05;9.90;69.90
70986;DHT22;58645;43.068;25.610;2022-10-18T19:16:36;9.90;70.50